Time;durP1;ratioP1;P1;durP2;ratioP2;P2;SDS_P1;SDS_P2;PMS_P1;PMS_P2;Temp;Humidity;BMP_temperature;BMP_pressure;BME280_temperature;BME280_humidity;BME280_pressure;Samples;Min_cycle;Max_cycle;Signal;HPM_P1;HPM_P2
2024/03/12 00:00:15;;;;;;;1.70;0.43;;;9.10;1.00;;;;;;5056799;28;20433;-57
2024/03/12 00:02:45;;;;;;;1.00;0.50;;;9.00;99.90;;;;;;5058073;28;20823;-54
2024/03/12 00:05:14;;;;;;;0.90;0.47;;;8.80;99.90;;;;;;5057692;28;20441;-56
2024/03/12 00:07:42;;;;;;;0.80;0.43;;;8.50;1.00;;;;;;5057939;28;20444;-56
2024/03/12 00:10:14;;;;;;;2.10;0.50;;;8.30;99.90;;;;;;5058171;28;20823;-54
2024/03/12 00:12:47;;;;;;;1.00;0.50;;;8.10;99.90;;;;;;5058176;28;20738;-58
2024/03/12 00:15:16;;;;;;;0.80;0.40;;;8.00;1.00;;;;;;5056677;28;20439;-54
2024/03/12 00:17:44;;;;;;;0.80;0.57;;;7.90;1.00;;;;;;5057280;28;20506;-58
2024/03/12 00:20:24;;;;;;;1.70;0.50;;;7.80;1.00;;;;;;5056423;28;20433;-53
2024/03/12 00:22:52;;;;;;;1.30;0.50;;;7.80;1.00;;;;;;5056600;28;20421;-55
2024/03/12 00:25:20;;;;;;;1.00;0.50;;;7.90;1.00;;;;;;5056066;28;20816;-57
2024/03/12 00:27:48;;;;;;;1.20;0.60;;;7.80;1.00;;;;;;5057280;28;20527;-56
2024/03/12 00:30:18;;;;;;;1.10;0.60;;;7.70;1.00;;;;;;5056484;28;20421;-55
2024/03/12 00:32:49;;;;;;;1.70;0.60;;;7.70;1.00;;;;;;5057309;28;20801;-55
2024/03/12 00:35:16;;;;;;;1.42;0.60;;;7.70;1.00;;;;;;5048614;28;20437;-55
2024/03/12 00:37:46;;;;;;;0.90;0.60;;;7.70;1.00;;;;;;5057168;28;20452;-57
2024/03/12 00:40:16;;;;;;;0.90;0.60;;;7.60;1.00;;;;;;5047803;28;20457;-49
2024/03/12 00:42:44;;;;;;;1.00;0.60;;;7.50;1.00;;;;;;5056642;28;20703;-52
2024/03/12 00:45:25;;;;;;;1.13;0.70;;;7.50;1.00;;;;;;5057423;28;20425;-54
2024/03/12 00:47:54;;;;;;;1.00;0.60;;;7.40;1.00;;;;;;5056041;28;20448;-56
2024/03/12 00:50:22;;;;;;;2.33;0.70;;;7.30;1.00;;;;;;5056206;28;20487;-54
2024/03/12 00:52:52;;;;;;;1.20;0.50;;;7.20;1.00;;;;;;5040204;28;20423;-50
2024/03/12 00:55:20;;;;;;;1.50;0.60;;;7.20;1.00;;;;;;5051816;28;20857;-51
2024/03/12 00:57:48;;;;;;;0.90;0.52;;;7.20;1.00;;;;;;5054879;28;20452;-52
2024/03/12 01:00:18;;;;;;;2.00;0.60;;;7.10;1.00;;;;;;5056533;28;20432;-55
2024/03/12 01:02:49;;;;;;;1.60;0.70;;;7.00;1.00;;;;;;5056583;28;20785;-54
2024/03/12 01:05:20;;;;;;;1.50;0.70;;;6.90;1.00;;;;;;5056521;28;20465;-55
2024/03/12 01:07:48;;;;;;;1.58;0.60;;;6.90;1.00;;;;;;5055542;28;20851;-58
2024/03/12 01:10:18;;;;;;;0.90;0.63;;;6.90;1.00;;;;;;5056304;28;20869;-55
2024/03/12 01:12:46;;;;;;;0.90;0.52;;;6.90;1.00;;;;;;5055917;28;20433;-56
2024/03/12 01:15:13;;;;;;;1.35;0.50;;;6.90;1.00;;;;;;5056048;28;20440;-55
2024/03/12 01:17:42;;;;;;;0.98;0.60;;;6.90;1.00;;;;;;5055459;28;20421;-52
2024/03/12 01:20:10;;;;;;;0.70;0.50;;;6.90;1.00;;;;;;5054971;28;20429;-53
2024/03/12 01:22:39;;;;;;;1.45;0.60;;;6.80;1.00;;;;;;5055567;28;20461;-54
2024/03/12 01:25:07;;;;;;;1.60;0.60;;;6.80;1.00;;;;;;5055834;28;20429;-54
2024/03/12 01:27:34;;;;;;;0.80;0.60;;;6.70;1.00;;;;;;5056097;28;20437;-56
2024/03/12 01:30:06;;;;;;;1.00;0.57;;;6.80;1.00;;;;;;5055823;28;20443;-55
2024/03/12 01:32:33;;;;;;;0.90;0.60;;;6.80;1.00;;;;;;5056620;28;20430;-53
2024/03/12 01:35:01;;;;;;;1.45;0.68;;;6.80;1.00;;;;;;5055765;28;20687;-51
2024/03/12 01:37:29;;;;;;;1.00;0.60;;;6.80;1.00;;;;;;5056118;28;20421;-55
2024/03/12 01:39:58;;;;;;;1.40;0.60;;;6.80;1.00;;;;;;5056427;28;20511;-54
2024/03/12 01:42:25;;;;;;;1.10;0.60;;;6.80;1.00;;;;;;5056376;28;20425;-56
2024/03/12 01:44:52;;;;;;;0.90;0.60;;;6.90;1.00;;;;;;5056399;28;20456;-55
2024/03/12 01:47:21;;;;;;;2.05;0.60;;;6.90;1.00;;;;;;5056039;28;20436;-53
2024/03/12 01:49:49;;;;;;;1.00;0.50;;;6.90;1.00;;;;;;5055520;28;20708;-52
2024/03/12 01:52:17;;;;;;;1.23;0.50;;;6.90;1.00;;;;;;5056126;28;20421;-53
2024/03/12 01:54:45;;;;;;;0.90;0.60;;;6.80;1.00;;;;;;5054480;28;20453;-56
2024/03/12 01:57:14;;;;;;;0.90;0.50;;;6.90;1.00;;;;;;5047468;28;20814;-55
2024/03/12 01:59:41;;;;;;;1.13;0.60;;;6.90;1.00;;;;;;5054848;28;20432;-56
2024/03/12 02:02:08;;;;;;;1.40;0.50;;;7.00;1.00;;;;;;5055338;28;20425;-55
2024/03/12 02:04:35;;;;;;;1.25;0.60;;;6.90;1.00;;;;;;5055089;28;20418;-53
2024/03/12 02:07:03;;;;;;;1.07;0.50;;;6.90;1.00;;;;;;5055251;28;20429;-55
2024/03/12 02:09:31;;;;;;;0.82;0.50;;;6.90;1.00;;;;;;5057629;28;20445;-55
2024/03/12 02:11:58;;;;;;;1.20;0.50;;;6.80;1.00;;;;;;5059634;28;20435;-54
2024/03/12 02:14:26;;;;;;;0.80;0.50;;;6.80;1.00;;;;;;5064480;28;20458;-56
2024/03/12 02:16:53;;;;;;;0.70;0.50;;;6.70;1.00;;;;;;5079341;28;20415;-55
2024/03/12 02:19:21;;;;;;;0.85;0.50;;;6.70;1.00;;;;;;5077324;28;20756;-55
2024/03/12 02:21:48;;;;;;;0.90;0.50;;;6.60;1.00;;;;;;5060249;28;20425;-54
2024/03/12 02:24:16;;;;;;;1.00;0.60;;;6.60;1.00;;;;;;5059307;28;20706;-53
2024/03/12 02:26:44;;;;;;;0.80;0.50;;;6.60;1.00;;;;;;5058707;28;20444;-55
2024/03/12 02:29:13;;;;;;;0.85;0.52;;;6.50;1.00;;;;;;5059522;28;20437;-53
2024/03/12 02:31:40;;;;;;;0.90;0.60;;;6.50;1.00;;;;;;5058963;28;20429;-53
2024/03/12 02:34:07;;;;;;;1.13;0.50;;;6.40;1.00;;;;;;5059125;28;20439;-54
2024/03/12 02:36:36;;;;;;;1.20;0.60;;;6.50;1.00;;;;;;5058706;28;20888;-56
2024/03/12 02:39:06;;;;;;;0.80;0.50;;;6.50;1.00;;;;;;5059590;28;20507;-52
2024/03/12 02:41:35;;;;;;;0.90;0.50;;;6.40;1.00;;;;;;5059681;28;20771;-54
2024/03/12 02:44:02;;;;;;;1.00;0.50;;;6.50;1.00;;;;;;5058632;28;20491;-54
2024/03/12 02:46:29;;;;;;;1.10;0.40;;;6.50;1.00;;;;;;5059127;28;20417;-54
2024/03/12 02:48:56;;;;;;;0.70;0.50;;;6.50;1.00;;;;;;5058823;28;20437;-56
2024/03/12 02:51:26;;;;;;;1.00;0.50;;;6.50;1.00;;;;;;5059218;28;20424;-55
2024/03/12 02:53:53;;;;;;;0.80;0.50;;;6.50;1.00;;;;;;5059163;28;20776;-53
2024/03/12 02:56:20;;;;;;;1.08;0.50;;;6.40;1.00;;;;;;5059515;28;20558;-54
2024/03/12 02:58:49;;;;;;;1.02;0.60;;;6.40;1.00;;;;;;5058922;28;20417;-54
2024/03/12 03:01:16;;;;;;;0.80;0.50;;;6.30;1.00;;;;;;5058546;28;20673;-54
2024/03/12 03:03:43;;;;;;;1.50;0.60;;;6.40;99.90;;;;;;5058963;28;20490;-55
2024/03/12 03:06:10;;;;;;;0.83;0.60;;;6.40;1.00;;;;;;5050126;28;20429;-55
2024/03/12 03:08:37;;;;;;;0.77;0.50;;;6.40;99.90;;;;;;5058039;28;20433;-54
2024/03/12 03:11:05;;;;;;;0.80;0.50;;;6.40;99.90;;;;;;5058380;28;20418;-56
2024/03/12 03:13:32;;;;;;;1.00;0.50;;;6.40;99.90;;;;;;5058865;28;20475;-56
2024/03/12 03:16:02;;;;;;;0.80;0.50;;;6.40;99.90;;;;;;5057369;28;20433;-53
2024/03/12 03:18:30;;;;;;;0.80;0.50;;;6.50;99.90;;;;;;5057771;28;20460;-53
2024/03/12 03:20:57;;;;;;;0.90;0.60;;;6.50;99.90;;;;;;5057111;28;20459;-52
2024/03/12 03:23:25;;;;;;;1.10;0.50;;;6.50;99.90;;;;;;5041504;28;20434;-54
2024/03/12 03:25:52;;;;;;;1.00;0.60;;;6.40;99.90;;;;;;5037950;28;20438;-54
2024/03/12 03:28:19;;;;;;;0.90;0.50;;;6.40;99.90;;;;;;5038795;28;20414;-55
2024/03/12 03:30:46;;;;;;;0.85;0.50;;;6.30;99.90;;;;;;5037888;28;20438;-55
2024/03/12 03:33:16;;;;;;;0.80;0.50;;;6.30;99.90;;;;;;5038578;28;20435;-53
2024/03/12 03:35:43;;;;;;;0.80;0.50;;;6.30;99.90;;;;;;5037623;28;20442;-54
2024/03/12 03:38:10;;;;;;;0.73;0.52;;;6.30;99.90;;;;;;5038342;28;20703;-54
2024/03/12 03:40:37;;;;;;;0.70;0.50;;;6.30;99.90;;;;;;5037852;28;20426;-51
2024/03/12 03:43:04;;;;;;;1.60;0.50;;;6.40;99.90;;;;;;5038679;28;20438;-53
2024/03/12 03:45:31;;;;;;;0.80;0.50;;;6.50;99.90;;;;;;5037784;28;20817;-55
2024/03/12 03:47:59;;;;;;;0.90;0.50;;;6.50;99.90;;;;;;5038286;28;20709;-54
2024/03/12 03:50:27;;;;;;;0.80;0.50;;;6.60;99.90;;;;;;5046265;28;20908;-54
2024/03/12 03:52:55;;;;;;;0.80;0.50;;;6.70;99.90;;;;;;5057467;28;20553;-55
2024/03/12 03:55:23;;;;;;;0.70;0.50;;;6.70;99.90;;;;;;5056738;28;20815;-55
2024/03/12 03:57:50;;;;;;;0.73;0.50;;;6.80;99.90;;;;;;5057046;28;20517;-55
2024/03/12 04:00:23;;;;;;;0.80;0.50;;;6.80;99.90;;;;;;5057348;28;20428;-54
2024/03/12 04:02:50;;;;;;;0.73;0.50;;;6.90;99.90;;;;;;5056707;28;20429;-53
2024/03/12 04:05:18;;;;;;;0.70;0.50;;;6.90;99.90;;;;;;5054175;28;20495;-51
2024/03/12 04:07:47;;;;;;;0.80;0.50;;;7.00;99.90;;;;;;5036770;28;20489;-54
2024/03/12 04:10:15;;;;;;;0.70;0.40;;;7.00;99.90;;;;;;5037085;28;20841;-53
2024/03/12 04:12:45;;;;;;;0.80;0.40;;;7.00;99.90;;;;;;5037743;28;20801;-56
2024/03/12 04:15:13;;;;;;;1.63;0.50;;;7.00;99.90;;;;;;5043231;28;20429;-56
2024/03/12 04:17:43;;;;;;;1.30;0.50;;;7.10;99.90;;;;;;5069870;28;20442;-56
2024/03/12 04:20:11;;;;;;;1.23;0.50;;;7.20;99.90;;;;;;5072425;28;20433;-55
2024/03/12 04:22:38;;;;;;;0.70;0.40;;;7.20;99.90;;;;;;5056904;28;20430;-54
2024/03/12 04:25:08;;;;;;;1.40;0.50;;;7.20;99.90;;;;;;5056722;28;20441;-57
2024/03/12 04:27:36;;;;;;;0.60;0.40;;;7.30;99.90;;;;;;5056461;28;20437;-56
2024/03/12 04:30:05;;;;;;;0.70;0.50;;;7.20;99.90;;;;;;5057410;28;20847;-55
2024/03/12 04:32:32;;;;;;;1.00;0.40;;;7.30;99.90;;;;;;5057403;28;20448;-59
2024/03/12 04:34:59;;;;;;;0.70;0.50;;;7.30;99.90;;;;;;5056611;28;20413;-59
2024/03/12 04:37:31;;;;;;;0.73;0.40;;;7.40;99.90;;;;;;5056805;28;20995;-60
2024/03/12 04:39:59;;;;;;;0.70;0.40;;;7.40;99.90;;;;;;5055808;28;20875;-59
2024/03/12 04:42:28;;;;;;;0.85;0.50;;;7.40;99.90;;;;;;5055233;28;20524;-59
2024/03/12 04:44:56;;;;;;;1.10;0.50;;;7.30;99.90;;;;;;5055626;28;20492;-57
2024/03/12 04:47:23;;;;;;;0.70;0.40;;;7.30;99.90;;;;;;5055373;28;20837;-57
2024/03/12 04:49:51;;;;;;;0.70;0.40;;;7.40;99.90;;;;;;5054236;28;20446;-57
2024/03/12 04:52:18;;;;;;;0.82;0.50;;;7.40;99.90;;;;;;5055331;28;20725;-59
2024/03/12 04:54:46;;;;;;;0.90;0.50;;;7.40;99.90;;;;;;5055426;28;20432;-57
2024/03/12 04:57:13;;;;;;;0.77;0.50;;;7.40;99.90;;;;;;5055919;28;20468;-55
2024/03/12 04:59:41;;;;;;;1.10;0.50;;;7.40;99.90;;;;;;5052747;28;20806;-56
2024/03/12 05:02:09;;;;;;;0.80;0.50;;;7.70;99.90;;;;;;5036419;28;20498;-56
2024/03/12 05:04:36;;;;;;;0.70;0.40;;;7.70;99.90;;;;;;5036676;28;20415;-56
2024/03/12 05:07:03;;;;;;;0.70;0.50;;;7.80;99.90;;;;;;5053820;28;20425;-57
2024/03/12 05:09:31;;;;;;;0.70;0.40;;;7.80;99.90;;;;;;5057336;28;20527;-57
2024/03/12 05:11:58;;;;;;;0.93;0.43;;;7.90;99.90;;;;;;5057063;28;20507;-57
2024/03/12 05:14:25;;;;;;;1.08;0.50;;;8.00;99.90;;;;;;5056656;28;20435;-57
2024/03/12 05:16:54;;;;;;;0.65;0.40;;;8.00;99.90;;;;;;5056726;28;20421;-57
2024/03/12 05:19:21;;;;;;;0.80;0.50;;;8.00;99.90;;;;;;5057136;28;20471;-58
2024/03/12 05:21:48;;;;;;;0.82;0.40;;;8.20;1.00;;;;;;5056708;28;20425;-59
2024/03/12 05:24:17;;;;;;;0.70;0.50;;;8.10;99.90;;;;;;5056611;28;20491;-59
2024/03/12 05:26:45;;;;;;;0.65;0.40;;;8.50;99.90;;;;;;5056685;28;20433;-58
2024/03/12 05:29:12;;;;;;;0.70;0.50;;;8.50;99.90;;;;;;5056704;28;20431;-57
2024/03/12 05:31:40;;;;;;;1.10;0.50;;;8.50;99.90;;;;;;5056103;28;20421;-58
2024/03/12 05:34:15;;;;;;;0.70;0.40;;;8.40;99.90;;;;;;5055907;28;20442;-58
2024/03/12 05:36:48;;;;;;;0.88;0.50;;;8.10;1.00;;;;;;5056162;28;20454;-58
2024/03/12 05:39:37;;;;;;;1.17;0.50;;;8.20;1.00;;;;;;5056715;28;20508;-59
2024/03/12 05:50:21;;;;;;;0.90;0.60;;;8.00;1.00;;;;;;5055747;28;20436;-58
2024/03/12 05:52:48;;;;;;;0.63;0.40;;;7.90;99.90;;;;;;5055869;28;21104;-58
2024/03/12 05:55:15;;;;;;;0.85;0.50;;;8.00;99.90;;;;;;5056246;28;20421;-58
2024/03/12 05:57:43;;;;;;;0.60;0.47;;;7.90;99.90;;;;;;5055492;28;20452;-58
2024/03/12 06:00:12;;;;;;;0.60;0.50;;;7.90;99.90;;;;;;5055826;28;20455;-57
2024/03/12 06:02:41;;;;;;;0.80;0.50;;;7.80;99.90;;;;;;5055616;28;20831;-58
2024/03/12 06:05:12;;;;;;;0.98;0.50;;;7.80;99.90;;;;;;5054266;28;20429;-59
2024/03/12 06:07:41;;;;;;;0.70;0.47;;;7.70;99.90;;;;;;5035556;28;20419;-58
2024/03/12 06:10:09;;;;;;;1.25;0.50;;;7.70;99.90;;;;;;5035747;28;20717;-59
2024/03/12 06:12:36;;;;;;;1.30;0.57;;;7.80;99.90;;;;;;5036611;28;20423;-58
2024/03/12 06:15:04;;;;;;;0.80;0.50;;;7.80;99.90;;;;;;5036309;28;20435;-59
2024/03/12 06:17:32;;;;;;;0.80;0.50;;;7.80;99.90;;;;;;5036375;28;20844;-59
2024/03/12 06:20:01;;;;;;;2.00;0.60;;;7.80;99.90;;;;;;5038592;28;20716;-59
2024/03/12 06:22:28;;;;;;;1.20;0.60;;;7.80;99.90;;;;;;5047761;28;20421;-59
2024/03/12 06:24:57;;;;;;;1.20;0.50;;;7.90;99.90;;;;;;5045771;28;20498;-59
2024/03/12 06:27:24;;;;;;;0.90;0.50;;;7.90;99.90;;;;;;5054791;28;20432;-56
2024/03/12 06:29:51;;;;;;;0.90;0.50;;;7.90;99.90;;;;;;5053024;28;20447;-59
2024/03/12 06:32:20;;;;;;;1.40;0.50;;;7.90;99.90;;;;;;5041553;28;20731;-58
2024/03/12 06:34:47;;;;;;;0.90;0.50;;;8.10;99.90;;;;;;5051658;28;20428;-58
2024/03/12 06:37:15;;;;;;;1.10;0.50;;;8.00;99.90;;;;;;5054299;28;20818;-57
2024/03/12 06:39:44;;;;;;;0.70;0.50;;;8.00;99.90;;;;;;5051126;28;20440;-58
2024/03/12 06:42:13;;;;;;;0.90;0.50;;;8.00;99.90;;;;;;5052588;28;20429;-58
2024/03/12 06:44:42;;;;;;;0.90;0.60;;;8.00;99.90;;;;;;5045403;28;20452;-58
2024/03/12 06:47:10;;;;;;;2.60;0.50;;;8.00;99.90;;;;;;5049813;28;20484;-58
2024/03/12 06:49:38;;;;;;;0.70;0.50;;;8.00;99.90;;;;;;5040720;28;20421;-59
2024/03/12 06:52:06;;;;;;;0.85;0.50;;;8.00;99.90;;;;;;5054150;28;20469;-58
2024/03/12 06:54:34;;;;;;;0.90;0.50;;;8.00;99.90;;;;;;5054894;28;20775;-56
2024/03/12 06:57:04;;;;;;;0.80;0.50;;;8.00;99.90;;;;;;5054583;28;20536;-61
2024/03/12 06:59:33;;;;;;;0.70;0.50;;;8.00;99.90;;;;;;5046122;28;20498;-60
2024/03/12 07:02:00;;;;;;;0.70;0.40;;;8.00;99.90;;;;;;5058730;28;20873;-60
2024/03/12 07:04:34;;;;;;;0.80;0.50;;;8.10;99.90;;;;;;5058982;28;20784;-60
2024/03/12 07:07:05;;;;;;;1.40;0.60;;;8.00;99.90;;;;;;5058029;28;20704;-59
2024/03/12 07:09:35;;;;;;;0.80;0.50;;;8.10;99.90;;;;;;5049474;28;20425;-59
2024/03/12 07:12:04;;;;;;;0.82;0.47;;;8.10;99.90;;;;;;5058384;28;20791;-60
2024/03/12 07:14:40;;;;;;;1.50;0.50;;;8.20;99.90;;;;;;5058163;28;20987;-59
2024/03/12 07:17:07;;;;;;;0.68;0.40;;;8.30;99.90;;;;;;5058906;28;20437;-59
2024/03/12 07:19:35;;;;;;;0.90;0.40;;;8.40;99.90;;;;;;5059048;28;20711;-60
2024/03/12 07:22:02;;;;;;;0.70;0.50;;;8.50;99.90;;;;;;5043084;28;20847;-60
2024/03/12 07:24:30;;;;;;;0.80;0.50;;;8.40;99.90;;;;;;5040404;28;20747;-60
2024/03/12 07:26:59;;;;;;;0.70;0.50;;;8.50;99.90;;;;;;5059138;28;20827;-60
2024/03/12 07:29:26;;;;;;;0.90;0.50;;;8.60;99.90;;;;;;5057453;28;20494;-60
2024/03/12 07:31:55;;;;;;;0.67;0.40;;;8.60;99.90;;;;;;5058172;28;20440;-60
2024/03/12 07:34:22;;;;;;;1.20;0.50;;;8.60;99.90;;;;;;5057800;28;20429;-60
2024/03/12 07:36:49;;;;;;;0.80;0.50;;;8.70;99.90;;;;;;5058261;28;20488;-60
2024/03/12 07:39:25;;;;;;;0.70;0.40;;;8.60;99.90;;;;;;5058210;28;20434;-60
2024/03/12 07:41:54;;;;;;;0.70;0.40;;;8.60;99.90;;;;;;5058955;28;20495;-60
2024/03/12 07:44:22;;;;;;;0.70;0.40;;;8.60;99.90;;;;;;5057439;28;20421;-60
2024/03/12 07:46:50;;;;;;;1.00;0.40;;;8.60;99.90;;;;;;5057435;28;20504;-60
2024/03/12 07:49:21;;;;;;;1.00;0.40;;;8.80;99.90;;;;;;5057700;28;20826;-61
2024/03/12 07:51:50;;;;;;;0.75;0.45;;;9.00;99.90;;;;;;5058834;28;20433;-61
2024/03/12 07:54:18;;;;;;;1.20;0.40;;;8.90;99.90;;;;;;5058426;28;20759;-61
2024/03/12 07:56:48;;;;;;;0.65;0.40;;;9.00;99.90;;;;;;5057682;28;20706;-61
2024/03/12 07:59:17;;;;;;;0.60;0.30;;;9.00;99.90;;;;;;5057876;28;20566;-62
2024/03/12 08:01:45;;;;;;;0.60;0.40;;;9.00;99.90;;;;;;5056984;28;20421;-60
2024/03/12 08:04:13;;;;;;;0.65;0.30;;;9.00;99.90;;;;;;5057177;28;20417;-61
2024/03/12 08:06:43;;;;;;;0.50;0.30;;;9.20;99.90;;;;;;5057441;28;20429;-61
2024/03/12 08:09:10;;;;;;;0.50;0.30;;;9.30;99.90;;;;;;5057244;28;20463;-61
2024/03/12 08:11:38;;;;;;;0.50;0.30;;;9.40;99.90;;;;;;5057752;28;20440;-61
2024/03/12 08:14:05;;;;;;;0.50;0.30;;;9.40;99.90;;;;;;5057075;28;20434;-61
2024/03/12 08:16:34;;;;;;;1.20;0.30;;;9.30;99.90;;;;;;5056249;28;20456;-61
2024/03/12 08:19:01;;;;;;;0.80;0.30;;;9.20;99.90;;;;;;5056410;28;20826;-61
2024/03/12 08:21:28;;;;;;;0.43;0.30;;;9.30;1.00;;;;;;5057435;28;20490;-61
2024/03/12 08:23:58;;;;;;;0.50;0.30;;;9.50;99.90;;;;;;5057231;28;20421;-61
2024/03/12 08:26:27;;;;;;;0.60;0.30;;;9.50;99.90;;;;;;5057019;28;20433;-60
2024/03/12 08:28:55;;;;;;;0.50;0.30;;;9.40;99.90;;;;;;5057482;28;20910;-61
2024/03/12 08:31:23;;;;;;;0.60;0.30;;;9.20;99.90;;;;;;5057943;28;20441;-61
2024/03/12 08:33:50;;;;;;;0.50;0.30;;;9.20;1.00;;;;;;5057533;28;20483;-61
2024/03/12 08:36:17;;;;;;;0.60;0.30;;;9.30;1.00;;;;;;5056749;28;20437;-60
2024/03/12 08:38:44;;;;;;;0.43;0.20;;;9.30;1.00;;;;;;5056105;28;20437;-61
2024/03/12 08:41:13;;;;;;;0.60;0.30;;;9.40;1.00;;;;;;5056780;28;20429;-59
2024/03/12 08:43:40;;;;;;;0.60;0.30;;;9.40;99.90;;;;;;5056825;28;20689;-60
2024/03/12 08:46:08;;;;;;;0.55;0.30;;;9.40;99.90;;;;;;5057513;28;20695;-59
2024/03/12 08:48:35;;;;;;;0.50;0.30;;;9.50;99.90;;;;;;5056327;28;20456;-59
2024/03/12 08:51:03;;;;;;;0.50;0.30;;;9.50;99.90;;;;;;5056660;28;20802;-58
2024/03/12 08:53:30;;;;;;;0.60;0.30;;;9.70;99.90;;;;;;5057108;28;20620;-58
2024/03/12 08:55:58;;;;;;;0.60;0.30;;;9.80;99.90;;;;;;5056303;28;20421;-60
2024/03/12 08:58:27;;;;;;;0.98;0.30;;;9.80;99.90;;;;;;5056953;28;20439;-59
2024/03/12 09:00:55;;;;;;;0.60;0.40;;;9.60;99.90;;;;;;5056381;28;20429;-60
2024/03/12 09:03:22;;;;;;;0.82;0.20;;;9.50;99.90;;;;;;5051833;28;20547;-60
2024/03/12 09:05:50;;;;;;;0.73;0.30;;;9.60;99.90;;;;;;5056953;28;20529;-60
2024/03/12 09:08:17;;;;;;;0.70;0.30;;;9.90;99.90;;;;;;5048905;28;20441;-58
2024/03/12 09:10:47;;;;;;;0.90;0.30;;;9.90;99.90;;;;;;5037274;28;20536;-57
2024/03/12 09:13:18;;;;;;;0.50;0.30;;;10.20;99.90;;;;;;5047397;28;20443;-58
2024/03/12 09:15:50;;;;;;;0.80;0.40;;;10.20;99.90;;;;;;5056236;28;20440;-59
2024/03/12 09:18:19;;;;;;;0.70;0.30;;;10.00;99.90;;;;;;5047648;28;20437;-59
2024/03/12 09:20:47;;;;;;;0.50;0.30;;;10.00;99.90;;;;;;5056133;28;20431;-59
2024/03/12 09:23:14;;;;;;;0.50;0.30;;;10.00;99.90;;;;;;5055467;28;20546;-58
2024/03/12 09:25:42;;;;;;;0.60;0.30;;;10.00;99.90;;;;;;5056418;28;20759;-59
2024/03/12 09:28:09;;;;;;;0.60;0.30;;;10.00;99.90;;;;;;5055678;28;20468;-60
2024/03/12 09:30:36;;;;;;;0.70;0.40;;;10.10;99.90;;;;;;5056051;28;20716;-60
2024/03/12 09:33:05;;;;;;;1.30;0.50;;;10.30;99.90;;;;;;5056442;28;20510;-60
2024/03/12 09:35:32;;;;;;;0.90;0.50;;;10.30;99.90;;;;;;5056370;28;20448;-60
2024/03/12 09:37:59;;;;;;;1.00;0.50;;;10.10;99.90;;;;;;5055222;28;20413;-60
2024/03/12 09:40:26;;;;;;;0.80;0.40;;;10.00;99.90;;;;;;5055055;28;20417;-59
2024/03/12 09:42:57;;;;;;;0.80;0.40;;;9.90;99.90;;;;;;5056331;28;20724;-60
2024/03/12 09:45:24;;;;;;;0.90;0.40;;;9.80;99.90;;;;;;5056513;28;20831;-60
2024/03/12 09:47:52;;;;;;;0.73;0.40;;;9.70;99.90;;;;;;5055835;28;20490;-60
2024/03/12 09:50:23;;;;;;;0.60;0.30;;;9.80;1.00;;;;;;5055650;28;20425;-59
2024/03/12 09:52:50;;;;;;;1.48;0.30;;;9.90;99.90;;;;;;5056581;28;20492;-60
2024/03/12 09:55:19;;;;;;;0.90;0.50;;;9.80;99.90;;;;;;5056319;28;20807;-60
2024/03/12 09:57:46;;;;;;;1.03;0.40;;;9.80;1.00;;;;;;5056313;28;20908;-60
2024/03/12 10:00:18;;;;;;;0.90;0.30;;;9.90;1.00;;;;;;5056158;28;20424;-62
2024/03/12 10:02:49;;;;;;;1.20;0.30;;;9.90;94.60;;;;;;5054983;28;20524;-62
2024/03/12 10:05:17;;;;;;;0.80;0.40;;;9.80;32.70;;;;;;5055830;28;20457;-62
2024/03/12 10:08:08;;;;;;;1.10;0.50;;;9.90;1.00;;;;;;5055377;28;20765;-61
2024/03/12 10:10:38;;;;;;;1.40;0.40;;;10.10;99.90;;;;;;5055852;28;20690;-62
2024/03/12 10:13:08;;;;;;;0.73;0.30;;;10.20;99.90;;;;;;5055636;28;20444;-62
2024/03/12 10:15:36;;;;;;;1.20;0.40;;;10.20;1.00;;;;;;5054807;28;20436;-61
2024/03/12 10:18:07;;;;;;;0.80;0.40;;;10.40;99.90;;;;;;5053787;28;20504;-61
2024/03/12 10:20:45;;;;;;;1.90;0.40;;;10.50;99.90;;;;;;5054623;28;20421;-61
2024/03/12 10:23:16;;;;;;;1.00;0.50;;;10.40;99.90;;;;;;5055593;28;20434;-60
2024/03/12 10:25:44;;;;;;;0.80;0.40;;;10.40;99.90;;;;;;5055611;28;20414;-60
2024/03/12 10:28:15;;;;;;;1.30;0.60;;;10.50;99.90;;;;;;5046715;28;20435;-60
2024/03/12 10:30:42;;;;;;;1.20;0.50;;;10.40;99.90;;;;;;5059012;28;20432;-60
2024/03/12 10:33:18;;;;;;;0.75;0.40;;;10.50;99.90;;;;;;5059438;28;20449;-60
2024/03/12 10:35:46;;;;;;;0.80;0.40;;;10.50;99.90;;;;;;5059848;28;20744;-60
2024/03/12 10:38:26;;;;;;;0.80;0.40;;;10.60;99.90;;;;;;5059724;28;20428;-60
2024/03/12 10:40:55;;;;;;;1.00;0.40;;;10.70;99.90;;;;;;5059725;28;20779;-59
2024/03/12 10:43:24;;;;;;;1.00;0.30;;;10.50;99.90;;;;;;5059061;28;20524;-60
2024/03/12 10:45:51;;;;;;;0.60;0.30;;;10.70;99.90;;;;;;5059322;28;20433;-60
2024/03/12 10:48:20;;;;;;;0.87;0.30;;;10.60;99.90;;;;;;5060202;28;20432;-60
2024/03/12 10:50:49;;;;;;;0.88;0.30;;;10.80;99.90;;;;;;5059552;28;20451;-60
2024/03/12 10:53:19;;;;;;;0.60;0.30;;;10.80;99.90;;;;;;5058507;28;20425;-59
2024/03/12 10:55:46;;;;;;;0.60;0.30;;;10.80;99.90;;;;;;5058495;28;20413;-60
2024/03/12 11:00:47;;;;;;;1.30;0.30;;;11.00;99.90;;;;;;5167299;27;20340;-60
2024/03/12 11:03:18;;;;;;;0.70;0.38;;;11.10;99.90;;;;;;5134377;27;20526;-60
2024/03/12 11:05:45;;;;;;;0.80;0.30;;;11.20;99.90;;;;;;5134585;27;20470;-60
2024/03/12 11:08:13;;;;;;;0.60;0.30;;;10.90;99.90;;;;;;5134244;28;20763;-60
2024/03/12 11:10:42;;;;;;;0.50;0.30;;;10.50;99.90;;;;;;5134906;27;20424;-60
2024/03/12 11:13:09;;;;;;;0.60;0.30;;;10.40;1.00;;;;;;5134290;27;20431;-58
2024/03/12 11:15:36;;;;;;;0.70;0.30;;;10.60;99.90;;;;;;5132029;27;20419;-58
2024/03/12 11:18:06;;;;;;;0.60;0.30;;;10.50;1.00;;;;;;5133848;28;20423;-58
2024/03/12 11:20:34;;;;;;;0.50;0.30;;;10.50;1.00;;;;;;5133833;28;20453;-59
2024/03/12 11:23:02;;;;;;;1.10;0.30;;;10.30;9.20;;;;;;5133918;28;20480;-58
2024/03/12 11:25:33;;;;;;;0.40;0.20;;;10.30;1.00;;;;;;5133712;27;20426;-58
2024/03/12 11:28:19;;;;;;;0.70;0.30;;;10.40;1.00;;;;;;5134264;28;20424;-56
2024/03/12 11:30:47;;;;;;;0.88;0.40;;;10.30;1.00;;;;;;5133417;27;20411;-58
2024/03/12 11:33:45;;;;;;;0.77;0.30;;;10.50;99.90;;;;;;5133996;28;20423;-58
2024/03/12 11:36:13;;;;;;;0.90;0.40;;;10.50;99.90;;;;;;5132399;27;20446;-58
2024/03/12 11:38:41;;;;;;;0.90;0.40;;;10.60;99.90;;;;;;5126073;28;20737;-58
2024/03/12 11:41:09;;;;;;;0.60;0.30;;;10.60;1.00;;;;;;5133566;28;20496;-59
2024/03/12 11:43:41;;;;;;;0.70;0.30;;;10.80;1.00;;;;;;5133895;28;20495;-57
2024/03/12 11:46:09;;;;;;;0.70;0.20;;;10.70;1.00;;;;;;5132141;28;20480;-55
2024/03/12 11:48:37;;;;;;;0.60;0.30;;;10.50;99.90;;;;;;5132104;28;20430;-57
2024/03/12 11:51:11;;;;;;;0.60;0.30;;;10.60;1.00;;;;;;5132647;27;20826;-54
2024/03/12 11:53:39;;;;;;;0.95;0.20;;;10.80;96.80;;;;;;5133537;28;20688;-56
2024/03/12 11:56:15;;;;;;;0.85;0.30;;;10.90;1.00;;;;;;5132481;28;20434;-59
2024/03/12 11:58:46;;;;;;;1.10;0.40;;;11.10;1.00;;;;;;5133403;27;20511;-58
2024/03/12 12:01:18;;;;;;;0.80;0.40;;;11.00;99.90;;;;;;5132495;28;20420;-58
2024/03/12 12:03:47;;;;;;;0.93;0.40;;;11.00;99.90;;;;;;5132245;27;20416;-58
2024/03/12 12:06:19;;;;;;;0.90;0.50;;;11.10;99.90;;;;;;5132676;28;20428;-59
2024/03/12 12:08:47;;;;;;;1.17;0.50;;;11.00;99.90;;;;;;5131797;27;20424;-59
2024/03/12 12:11:16;;;;;;;1.70;0.60;;;11.10;99.90;;;;;;5123255;28;20871;-58
2024/03/12 12:13:46;;;;;;;1.60;0.50;;;11.10;99.90;;;;;;5118116;28;20777;-58
2024/03/12 12:16:16;;;;;;;1.85;0.80;;;11.00;99.90;;;;;;5117305;28;20468;-58
2024/03/12 12:18:44;;;;;;;2.03;0.80;;;10.90;99.90;;;;;;5118069;28;20430;-58
2024/03/12 12:21:14;;;;;;;1.60;0.80;;;10.80;1.00;;;;;;5119370;28;20431;-58
2024/03/12 12:23:44;;;;;;;2.17;0.90;;;10.70;89.80;;;;;;5118571;28;20428;-58
2024/03/12 12:26:13;;;;;;;2.40;0.90;;;10.50;99.90;;;;;;5109691;28;20432;-59
2024/03/12 12:28:41;;;;;;;1.88;0.75;;;10.40;1.00;;;;;;5117106;28;20420;-58
2024/03/12 12:31:11;;;;;;;1.17;0.70;;;10.70;1.00;;;;;;5118474;28;20408;-59
2024/03/12 12:33:43;;;;;;;1.10;0.60;;;10.90;99.90;;;;;;5117828;28;20511;-57
2024/03/12 12:36:13;;;;;;;1.40;0.60;;;11.20;99.90;;;;;;5117606;28;20420;-58
2024/03/12 12:38:43;;;;;;;1.00;0.40;;;11.30;99.90;;;;;;5119257;28;20431;-59
2024/03/12 12:41:11;;;;;;;1.00;0.50;;;11.50;1.00;;;;;;5114573;28;20822;-59
2024/03/12 12:43:40;;;;;;;1.20;0.40;;;11.50;1.00;;;;;;5118168;28;20416;-59
2024/03/12 12:46:16;;;;;;;1.20;0.55;;;11.30;1.00;;;;;;5113628;28;20477;-57
2024/03/12 12:48:44;;;;;;;1.13;0.50;;;11.30;1.00;;;;;;5116177;28;20454;-59
2024/03/12 12:51:12;;;;;;;1.80;0.77;;;11.10;1.00;;;;;;5117272;28;20484;-59
2024/03/12 12:53:39;;;;;;;2.40;1.00;;;11.00;1.00;;;;;;5117530;28;20428;-58
2024/03/12 12:56:09;;;;;;;2.42;0.90;;;11.10;1.00;;;;;;5116676;28;21020;-59
2024/03/12 12:58:41;;;;;;;2.67;1.10;;;11.20;1.00;;;;;;5117639;28;20447;-59
2024/03/12 13:01:11;;;;;;;3.42;1.40;;;11.20;1.00;;;;;;5117285;28;21039;-59
2024/03/12 13:03:39;;;;;;;2.50;1.00;;;11.00;1.00;;;;;;5118468;28;20424;-59
2024/03/12 13:06:15;;;;;;;2.05;0.90;;;10.90;1.00;;;;;;5117291;28;20672;-59
2024/03/12 13:08:44;;;;;;;2.70;1.05;;;10.90;1.00;;;;;;5116442;28;20698;-59
2024/03/12 13:11:14;;;;;;;3.53;1.20;;;11.00;1.00;;;;;;5117434;28;20430;-59
2024/03/12 13:13:42;;;;;;;3.55;1.20;;;10.90;1.00;;;;;;5118373;28;20428;-59
2024/03/12 13:16:17;;;;;;;4.78;1.80;;;10.80;1.00;;;;;;5117338;28;20702;-59